Monday, July 23, 2018, 7:27 AM EDT
Back to Local

KLEB, Lebanon Municipal Airport

Location: Lebanon, NH, United States Lat: 43.633
Local Time: 7:27 AM EDT (11:27 GMT) Lon: -72.3
Time Zone: US/Eastern Elev: 597 ft

Show me the last for .
Show Decoded

2018-07-23 06:53 METAR KLEB 231053Z 31004KT 2SM BR BKN001 BKN033 BKN110 23/21 A3017 RMK AO2
                 RAE0956 SLP205 P0000 T02280206 =
2018-07-23 06:42 METAR KLEB 231042Z 00000KT 5SM BR FEW026 BKN033 OVC110 23/21 A3016 RMK AO2
                 RAE0956 P0000 T02280206 =
2018-07-23 06:27 METAR KLEB 231027Z 00000KT 5SM BR FEW001 BKN025 OVC030 22/21 A3016 RMK AO2
                 RAE0956 P0000 T02220206 =
2018-07-23 06:08 METAR KLEB 231008Z 00000KT 5SM BR BKN001 BKN025 OVC045 22/21 A3016 RMK AO2
                 RAE0956 P0000 T02220206 =
2018-07-23 06:00 METAR KLEB 231000Z 00000KT 5SM BR BKN002 BKN039 OVC050 22/20 A3015 RMK AO2
                 RAE0956 P0000 T02220200 =
2018-07-23 05:53 METAR KLEB 230953Z AUTO 00000KT 10SM -RA SCT002 BKN041 OVC065 22/20 A3015 RMK
                 AO2 SLP201 P0005 T02220200 =
2018-07-23 05:36 METAR KLEB 230936Z AUTO 00000KT 10SM -RA FEW005 SCT039 BKN055 22/21 A3016 RMK
                 AO2 P0005 T02220206 =
2018-07-23 04:53 METAR KLEB 230853Z AUTO 00000KT 10SM -RA FEW033 SCT050 OVC065 22/20 A3014 RMK
                 AO2 RAE29B36 SLP196 P0059 60136 T02170200 51005 =
2018-07-23 04:30 METAR KLEB 230830Z AUTO 21005KT 10SM SCT018 BKN035 OVC110 22/20 A3015 RMK AO2
                 RAE29 P0056 T02220200 =
2018-07-23 04:21 METAR KLEB 230821Z AUTO 21003KT 10SM -RA BKN018 BKN036 BKN049 22/20 A3014 RMK
                 AO2 P0056 T02220200 =
2018-07-23 04:08 METAR KLEB 230808Z AUTO 13006KT 10SM +RA FEW003 BKN012 OVC016 22/20 A3013 RMK
                 AO2 P0056 T02220200 =
2018-07-23 03:53 METAR KLEB 230753Z AUTO 00000KT 10SM +RA FEW001 BKN022 OVC065 22/21 A3014 RMK
                 AO2 SLP197 P0047 T02220206 =
2018-07-23 03:46 METAR KLEB 230746Z AUTO 00000KT 10SM +RA FEW007 BKN028 OVC065 22/21 A3014 RMK
                 AO2 P0040 T02220206 =
2018-07-23 03:28 METAR KLEB 230728Z AUTO 00000KT 10SM RA FEW015 BKN039 OVC070 22/20 A3014 RMK AO2
                 P0026 T02220200 =
2018-07-23 02:53 METAR KLEB 230653Z AUTO VRB05KT 10SM +RA FEW008 BKN023 OVC029 22/20 A3014 RMK
                 AO2 RAB0555 SLP195 P0030 T02220200 =
2018-07-23 02:35 METAR KLEB 230635Z AUTO 00000KT 10SM -RA BKN027 OVC033 22/20 A3013 RMK AO2
                 RAB0555 P0003 T02220200 =
2018-07-23 01:53 METAR KLEB 230553Z AUTO 04005KT 10SM FEW032 BKN040 OVC070 22/19 A3013 RMK AO2
                 SLP192 60009 T02220194 10222 20217 58006 =
2018-07-23 01:25 METAR KLEB 230525Z AUTO 05005KT 10SM SCT011 BKN034 OVC065 22/19 A3013 RMK AO2
                 T02170194 =
2018-07-23 00:53 METAR KLEB 230453Z AUTO 04004KT 10SM BKN010 BKN024 OVC048 22/19 A3014 RMK AO2
                 RAE0358B18E44 SLP195 P0002 T02170194 402670139 =
2018-07-22 23:53 METAR KLEB 230353Z AUTO 05006KT 10SM -RA SCT012 BKN033 OVC065 22/19 A3015 RMK
                 AO2 RAB00E21B39 SLP200 P0006 T02170194 =
2018-07-22 23:51 METAR KLEB 230351Z AUTO 06005KT 10SM -RA SCT012 BKN033 OVC065 22/19 A3015 RMK
                 AO2 RAB00E21B39 P0006 =
2018-07-22 23:43 METAR KLEB 230343Z AUTO 06005KT 10SM -RA SCT012 BKN019 OVC038 22/19 A3015 RMK
                 AO2 RAB00E21B39 P0004 T02170194 =
2018-07-22 23:22 METAR KLEB 230322Z AUTO 05005KT 10SM FEW014 BKN038 OVC050 22/19 A3015 RMK AO2
                 RAB00E21 P0001 T02170189 =
2018-07-22 23:11 METAR KLEB 230311Z AUTO 06004KT 10SM -RA SCT014 BKN029 OVC048 22/19 A3015 RMK
                 AO2 RAB00 P0001 T02170189 =
2018-07-22 23:03 METAR KLEB 230303Z AUTO 05005KT 10SM -RA BKN014 BKN021 OVC038 22/19 A3015 RMK
                 AO2 RAB00 P0000 T02170189 =
2018-07-22 22:53 METAR KLEB 230253Z AUTO 06004KT 10SM BKN015 BKN031 OVC038 22/19 A3015 RMK AO2
                 RAB0154E19 SLP202 P0001 60001 T02170189 51012 =
2018-07-22 22:24 METAR KLEB 230224Z AUTO 06004KT 10SM BKN015 BKN023 OVC034 22/19 A3015 RMK AO2
                 RAB0154E19 P0001 T02170189 =
2018-07-22 22:11 METAR KLEB 230211Z AUTO 06003KT 10SM -RA BKN014 BKN020 OVC035 22/19 A3015 RMK
                 AO2 RAB0154 P0000 T02170189 =
2018-07-22 21:53 METAR KLEB 230153Z 03003KT 10SM BKN016 BKN036 OVC050 22/19 A3015 RMK AO2 SLP202
                 T02220189 =
2018-07-22 20:53 METAR KLEB 230053Z 05005KT 10SM OVC016 22/18 A3013 RMK AO2 SLP195 T02170183 =
2018-07-22 20:39 METAR KLEB 230039Z 05005KT 10SM OVC016 22/18 A3012 RMK AO2 T02220183 =
2018-07-22 20:20 METAR KLEB 230020Z 05005KT 10SM OVC014 22/18 A3012 RMK AO2 T02220183 =
2018-07-22 19:53 METAR KLEB 222353Z 02004KT 10SM OVC015 23/18 A3012 RMK AO2 SLP189 T02280183
                 10267 20228 53016 =
2018-07-22 19:36 METAR KLEB 222336Z 02003KT 10SM OVC015 23/18 A3011 RMK AO2 T02280183 =
2018-07-22 19:05 METAR KLEB 222305Z VRB03KT 10SM BKN013 OVC040 23/18 A3010 RMK AO2 T02330183 =
2018-07-22 18:53 METAR KLEB 222253Z 17009KT 10SM FEW015 OVC040 23/18 A3010 RMK AO2 SLP185
                 T02330183 =
2018-07-22 17:53 METAR KLEB 222153Z VRB04KT 10SM SCT039 BKN047 24/18 A3008 RMK AO2 SLP177
                 T02440183 =
2018-07-22 16:53 METAR KLEB 222053Z VRB06KT 10SM FEW038 26/19 A3007 RMK AO2 SLP173 T02560189
                 51002 =
2018-07-22 16:08 METAR KLEB 222008Z VRB04KT 10SM SCT022 SCT034 BKN044 25/18 A3007 RMK AO2
                 T02500183 =
2018-07-22 15:53 METAR KLEB 221953Z VRB05KT 10SM BKN022 OVC044 24/18 A3007 RMK AO2 SLP172
                 T02440178 =
2018-07-22 15:43 METAR KLEB 221943Z 13008KT 10SM BKN022 24/18 A3006 RMK AO2 T02440178 =
2018-07-22 14:56 METAR KLEB 221856Z 14006KT 10SM BKN039 26/18 A3007 RMK AO2 T02610183 =
2018-07-22 14:53 METAR KLEB 221853Z 10SM BKN039 26/18 A3007 RMK AO2 SLP173 T02560183 =
2018-07-22 13:53 METAR KLEB 221753Z 14009G15KT 10SM FEW019 OVC039 24/18 A3006 RMK AO2 SLP172
                 60004 T02390178 10244 20183 56003 =
2018-07-22 13:14 METAR KLEB 221714Z 15009G18KT 110V180 10SM SCT016 OVC035 23/17 A3007 RMK AO2
                 T02330172 =
2018-07-22 12:53 METAR KLEB 221653Z VRB03KT 10SM BKN015 OVC037 23/17 A3006 RMK AO2 SLP173
                 T02330172 =
2018-07-22 12:28 METAR KLEB 221628Z 07003KT 10SM BKN016 BKN050 23/18 A3007 RMK AO2 T02330178 =
2018-07-22 12:05 METAR KLEB 221605Z 07003KT 10SM FEW012 BKN060 BKN075 22/17 A3007 RMK AO2
                 T02220172 =
2018-07-22 12:03 METAR KLEB 221603Z 10SM SCT012 BKN060 BKN075 22/17 A3007 RMK AO2 T02170172 =
2018-07-22 11:53 METAR KLEB 221553Z VRB06KT 10SM BKN012 BKN060 OVC075 22/17 A3007 RMK AO2 SLP174
                 T02170167 =
2018-07-22 11:21 METAR KLEB 221521Z 00000KT 10SM BKN013 BKN021 OVC060 21/17 A3007 RMK AO2
                 T02060167 =
2018-07-22 10:53 METAR KLEB 221453Z VRB03KT 10SM BKN015 BKN070 OVC095 19/16 A3007 RMK AO2 RAE53
                 SLP176 P0004 60004 T01940161 55003 =
2018-07-22 09:53 METAR KLEB 221353Z 07008KT 10SM -RA BKN017 BKN090 OVC110 18/14 A3006 RMK AO2
                 RAB25 SLP173 P0000 T01830144 =
2018-07-22 09:09 METAR KLEB 221309Z 07008G15KT 10SM SCT019 BKN060 OVC100 19/13 A3007 RMK AO2
                 T01940128 =
2018-07-22 08:53 METAR KLEB 221253Z 09007G16KT 10SM BKN020 BKN042 OVC055 19/12 A3008 RMK AO2
                 SLP177 T01890122 =
2018-07-22 08:24 METAR KLEB 221224Z VRB04KT 10SM BKN026 BKN038 OVC100 19/12 A3008 RMK AO2
                 T01940122 =
2018-07-22 07:53 METAR KLEB 221153Z VRB04KT 10SM FEW026 BKN085 OVC110 19/12 A3008 RMK AO2 SLP177
                 T01890122 10189 20144 57001 =

Support USWX by starting your Amazon purchase here.